XE2FAT-2 Weather Reports


Display with metric or nautical units.
time (UTC)temp
F
wind
direction
speed
MPH
gust
MPH
rain 1hr
in
rain 24hr
in
rain mn
in
humidity
%
barometer
mb
20201029220022 71 25 5.0 5.0 0.00 0.00 0.00 26 1018.1
20201029215600 71 71 5.0 7.0 0.00 0.00 0.00 26 1018.1
20201029215150 72 60 6.0 9.0 0.00 0.00 0.00 26 1018.1
20201029214739 71 73 3.0 6.0 0.00 0.00 0.00 27 1018.2
20201029214329 71 66 5.0 6.0 0.00 0.00 0.00 27 1018.2
20201029213923 70 68 5.0 5.0 0.00 0.00 0.00 27 1018.2
20201029213515 71 60 6.0 8.0 0.00 0.00 0.00 27 1018.2
20201029213059 71 65 7.0 8.0 0.00 0.00 0.00 27 1018.2
20201029212656 71 100 10.0 10.0 0.00 0.00 0.00 27 1018.2
20201029212243 71 57 6.0 8.0 0.00 0.00 0.00 27 1018.2
20201029211827 70 72 5.0 7.0 0.00 0.00 0.00 27 1018.2
20201029211421 71 57 8.0 10.0 0.00 0.00 0.00 27 1018.2
20201029211025 71 100 5.0 6.0 0.00 0.00 0.00 27 1018.2
20201029210621 71 96 7.0 9.0 0.00 0.00 0.00 27 1018.2
20201029210255 71 45 8.0 9.0 0.00 0.00 0.00 27 1018.4
20201029205741 70 53 5.0 6.0 0.00 0.00 0.00 27 1018.4
20201029205325 70 80 6.0 7.0 0.00 0.00 0.00 27 1018.4
20201029204922 70 93 6.0 7.0 0.00 0.00 0.00 27 1018.4
20201029204529 70 97 6.0 12.0 0.00 0.00 0.00 27 1018.4
20201029204101 70 59 7.0 9.0 0.00 0.00 0.00 27 1018.4
20201029203650 69 53 9.0 10.0 0.00 0.00 0.00 27 1018.6
20201029203234 70 66 8.0 8.0 0.00 0.00 0.00 27 1018.6
20201029202825 70 40 9.0 10.0 0.00 0.00 0.00 27 1018.6
20201029202424 70 96 7.0 9.0 0.00 0.00 0.00 27 1018.9
20201029202025 71 88 6.0 9.0 0.00 0.00 0.00 27 1018.9
20201029201553 70 55 6.0 8.0 0.00 0.00 0.00 27 1018.9
20201029201146 69 73 3.0 3.0 0.00 0.00 0.00 28 1019.1
20201029200734 70 68 7.0 8.0 0.00 0.00 0.00 27 1019.1
20201029200324 70 105 7.0 6.0 0.00 0.00 0.00 27 1019.1
20201029195928 70 86 7.0 8.0 0.00 0.00 0.00 27 1019.2
20201029195505 70 94 7.0 8.0 0.00 0.00 0.00 27 1019.2
20201029195057 69 58 6.0 7.0 0.00 0.00 0.00 28 1019.4
20201029194645 68 100 5.0 5.0 0.00 0.00 0.00 28 1019.5
20201029194231 69 61 8.0 9.0 0.00 0.00 0.00 28 1019.5
20201029193822 68 92 7.0 7.0 0.00 0.00 0.00 28 1019.5
20201029193416 69 94 7.0 9.0 0.00 0.00 0.00 28 1019.7
20201029193018 69 71 8.0 9.0 0.00 0.00 0.00 28 1019.7
20201029192553 69 57 7.0 8.0 0.00 0.00 0.00 28 1019.9
20201029192143 69 94 6.0 9.0 0.00 0.00 0.00 28 1020.0
20201029191731 69 84 8.0 10.0 0.00 0.00 0.00 28 1020.0
20201029191320 69 45 7.0 7.0 0.00 0.00 0.00 28 1020.3
20201029190921 69 108 5.0 6.0 0.00 0.00 0.00 28 1020.3
20201029190524 68 60 5.0 7.0 0.00 0.00 0.00 29 1020.3
20201029190105 66 188 2.0 5.0 0.00 0.00 0.00 30 1020.7
20201029185642 66 77 5.0 7.0 0.00 0.00 0.00 29 1020.7
20201029185241 67 80 6.0 7.0 0.00 0.00 0.00 29 1020.7
20201029184819 67 73 7.0 9.0 0.00 0.00 0.00 29 1020.9
20201029184416 67 102 5.0 5.0 0.00 0.00 0.00 29 1020.9
20201029184007 68 93 7.0 8.0 0.00 0.00 0.00 29 1020.9
20201029183552 67 61 7.0 12.0 0.00 0.00 0.00 29 1021.1
20201029183141 67 190 3.0 5.0 0.00 0.00 0.00 30 1021.1
20201029182729 65 89 3.0 5.0 0.00 0.00 0.00 31 1021.1
20201029182319 67 110 5.0 7.0 0.00 0.00 0.00 29 1021.2
20201029181924 67 86 6.0 8.0 0.00 0.00 0.00 29 1021.2
20201029181457 66 90 3.0 3.0 0.00 0.00 0.00 30 1021.2
20201029181047 65 348 3.0 6.0 0.00 0.00 0.00 31 1021.4
20201029180647 64 72 1.0 3.0 0.00 0.00 0.00 32 1021.4
20201029180227 63 260 2.0 5.0 0.00 0.00 0.00 32 1021.5
20201029175818 64 132 5.0 6.0 0.00 0.00 0.00 31 1021.6
20201029175408 65 30 6.0 6.0 0.00 0.00 0.00 31 1021.6
20201029174957 64 86 5.0 6.0 0.00 0.00 0.00 31 1021.9
20201029174550 64 46 5.0 6.0 0.00 0.00 0.00 32 1021.9
20201029174141 62 220 3.0 5.0 0.00 0.00 0.00 33 1021.9
20201029173725 64 61 5.0 6.0 0.00 0.00 0.00 31 1022.0
20201029173315 64 49 5.0 6.0 0.00 0.00 0.00 31 1022.0
20201029172915 62 144 2.0 3.0 0.00 0.00 0.00 33 1022.0
20201029172521 62 73 2.0 5.0 0.00 0.00 0.00 34 1022.2
20201029172044 62 55 3.0 5.0 0.00 0.00 0.00 33 1022.2
20201029171639 63 78 6.0 6.0 0.00 0.00 0.00 32 1022.2
20201029171238 61 47 2.0 7.0 0.00 0.00 0.00 33 1022.2
20201029170818 61 220 2.0 6.0 0.00 0.00 0.00 33 1022.2
20201029170406 62 68 3.0 5.0 0.00 0.00 0.00 33 1022.2
20201029165956 62 116 3.0 5.0 0.00 0.00 0.00 32 1022.4
20201029165544 60 210 1.0 2.0 0.00 0.00 0.00 33 1022.4
20201029165140 60 208 2.0 2.0 0.00 0.00 0.00 32 1022.4
20201029164738 60 22 3.0 5.0 0.00 0.00 0.00 32 1022.4
20201029164312 60 52 3.0 6.0 0.00 0.00 0.00 31 1022.4
20201029163905 59 216 1.0 1.0 0.00 0.00 0.00 32 1022.4
20201029163454 59 98 3.0 3.0 0.00 0.00 0.00 32 1022.4
20201029163042 59 77 3.0 5.0 0.00 0.00 0.00 32 1022.4
20201029162634 57 234 1.0 2.0 0.00 0.00 0.00 34 1022.4
20201029162223 57 193 1.0 1.0 0.00 0.00 0.00 33 1022.4
20201029161814 56 131 2.0 2.0 0.00 0.00 0.00 34 1022.4
20201029161413 55 78 1.0 3.0 0.00 0.00 0.00 35 1022.5
20201029160951 55 244 2.0 2.0 0.00 0.00 0.00 35 1022.5
20201029160541 55 44 2.0 5.0 0.00 0.00 0.00 35 1022.5
20201029160134 54 149 0.0 2.0 0.00 0.00 0.00 36 1022.5
20201029155724 54 125 1.0 1.0 0.00 0.00 0.00 36 1022.5
20201029155312 53 126 1.0 3.0 0.00 0.00 0.00 37 1022.5
20201029154904 53 201 0.0 0.0 0.00 0.00 0.00 37 1022.7
20201029154453 53 241 3.0 3.0 0.00 0.00 0.00 36 1022.7
20201029154042 51 153 0.0 1.0 0.00 0.00 0.00 38 1022.7
20201029153638 51 92 0.0 2.0 0.00 0.00 0.00 38 1022.5
20201029153223 51 104 2.0 2.0 0.00 0.00 0.00 38 1022.5
20201029152811 51 187 0.0 1.0 0.00 0.00 0.00 38 1022.5
20201029152405 50 89 2.0 2.0 0.00 0.00 0.00 39 1022.5
20201029151950 49 55 0.0 1.0 0.00 0.00 0.00 40 1022.5
20201029151547 48 193 2.0 2.0 0.00 0.00 0.00 41 1022.5
20201029151133 49 206 0.0 0.0 0.00 0.00 0.00 41 1022.3
20201029150718 47 222 1.0 1.0 0.00 0.00 0.00 43 1022.3
20201029150309 46 242 3.0 3.0 0.00 0.00 0.00 44 1022.3
20201029145904 46 225 2.0 3.0 0.00 0.00 0.00 44 1022.2
20201029145448 48 223 3.0 3.0 0.00 0.00 0.00 42 1022.2
20201029145037 47 227 3.0 3.0 0.00 0.00 0.00 43 1022.0
20201029144629 46 246 3.0 3.0 0.00 0.00 0.00 44 1022.0
20201029144217 45 238 2.0 3.0 0.00 0.00 0.00 46 1022.0
20201029143806 43 212 3.0 3.0 0.00 0.00 0.00 48 1021.9
20201029143402 43 202 2.0 2.0 0.00 0.00 0.00 49 1021.8
20201029142947 43 237 3.0 2.0 0.00 0.00 0.00 49 1021.8
20201029142536 42 235 2.0 3.0 0.00 0.00 0.00 49 1021.7
20201029142128 42 227 2.0 2.0 0.00 0.00 0.00 49 1021.7
20201029141726 42 226 3.0 5.0 0.00 0.00 0.00 49 1021.7
20201029141306 41 244 3.0 5.0 0.00 0.00 0.00 49 1021.5
20201029140902 41 243 3.0 5.0 0.00 0.00 0.00 49 1021.5
20201029140445 42 249 3.0 3.0 0.00 0.00 0.00 49 1021.5
20201029140036 42 258 3.0 3.0 0.00 0.00 0.00 49 1021.3
20201029135626 41 211 2.0 3.0 0.00 0.00 0.00 50 1021.3
20201029135214 41 225 3.0 3.0 0.00 0.00 0.00 51 1021.3
20201029134804 41 229 2.0 5.0 0.00 0.00 0.00 52 1021.3
20201029134358 40 246 3.0 5.0 0.00 0.00 0.00 53 1021.3
20201029133943 40 222 3.0 3.0 0.00 0.00 0.00 53 1021.3
20201029133533 39 225 3.0 3.0 0.00 0.00 0.00 54 1021.0
20201029133129 39 215 3.0 3.0 0.00 0.00 0.00 55 1021.0
20201029132713 38 238 3.0 3.0 0.00 0.00 0.00 56 1021.0
20201029132306 38 219 3.0 3.0 0.00 0.00 0.00 56 1020.9
20201029131855 38 225 3.0 5.0 0.00 0.00 0.00 56 1020.9
20201029131444 38 229 2.0 3.0 0.00 0.00 0.00 56 1020.9
20201029131035 38 234 2.0 3.0 0.00 0.00 0.00 56 1020.6
20201029130625 38 221 2.0 2.0 0.00 0.00 0.00 56 1020.6
20201029130212 38 225 2.0 2.0 0.00 0.00 0.00 56 1020.6
20201029125802 38 244 2.0 2.0 0.00 0.00 0.00 56 1020.5
20201029125410 38 247 2.0 3.0 0.00 0.00 0.00 56 1020.5
20201029124951 38 238 2.0 2.0 0.00 0.00 0.00 56 1020.2
20201029124551 38 209 2.0 2.0 0.00 0.00 0.00 56 1020.2
20201029124126 38 210 1.0 1.0 0.00 0.00 0.00 56 1020.2
20201029123712 38 215 3.0 3.0 0.00 0.00 0.00 56 1020.2
20201029123301 38 225 2.0 2.0 0.00 0.00 0.00 57 1020.2
20201029122859 38 225 2.0 2.0 0.00 0.00 0.00 57 1020.2
20201029122441 38 225 3.0 3.0 0.00 0.00 0.00 57 1019.9
20201029122033 38 215 1.0 2.0 0.00 0.00 0.00 57 1019.9
20201029121623 38 205 2.0 2.0 0.00 0.00 0.00 56 1019.9
20201029121209 38 225 0.0 2.0 0.00 0.00 0.00 56 1019.9
20201029120803 38 212 1.0 2.0 0.00 0.00 0.00 55 1019.9
20201029120403 38 236 2.0 2.0 0.00 0.00 0.00 55 1019.9
20201029115940 38 202 2.0 2.0 0.00 0.00 0.00 55 1019.8
20201029115530 38 214 2.0 2.0 0.00 0.00 0.00 55 1019.8
20201029115120 39 225 1.0 1.0 0.00 0.00 0.00 55 1019.8
20201029114708 39 225 1.0 1.0 0.00 0.00 0.00 55 1019.5
20201029114301 39 269 3.0 3.0 0.00 0.00 0.00 55 1019.5
20201029113850 39 255 5.0 5.0 0.00 0.00 0.00 55 1019.5
20201029113437 39 240 6.0 6.0 0.00 0.00 0.00 55 1019.5
20201029113031 38 263 3.0 5.0 0.00 0.00 0.00 56 1019.5
20201029112619 38 242 3.0 5.0 0.00 0.00 0.00 56 1019.4
20201029112208 38 250 3.0 3.0 0.00 0.00 0.00 56 1019.4
20201029111756 38 250 2.0 2.0 0.00 0.00 0.00 56 1019.4
20201029111351 39 233 2.0 2.0 0.00 0.00 0.00 56 1019.3
20201029110936 39 263 2.0 3.0 0.00 0.00 0.00 56 1019.3
20201029110529 39 232 2.0 2.0 0.00 0.00 0.00 56 1019.3
20201029110118 39 237 3.0 3.0 0.00 0.00 0.00 56 1019.3
20201029105708 39 223 5.0 6.0 0.00 0.00 0.00 56 1019.3
20201029105255 39 237 3.0 5.0 0.00 0.00 0.00 54 1019.3
20201029104848 39 248 2.0 3.0 0.00 0.00 0.00 53 1019.2
20201029104435 39 248 3.0 5.0 0.00 0.00 0.00 53 1019.2
20201029104030 39 228 5.0 5.0 0.00 0.00 0.00 52 1019.2
20201029103616 39 230 3.0 5.0 0.00 0.00 0.00 52 1019.1
20201029103213 39 236 3.0 3.0 0.00 0.00 0.00 52 1019.1
20201029102754 39 254 3.0 3.0 0.00 0.00 0.00 52 1019.1
20201029102349 39 248 3.0 3.0 0.00 0.00 0.00 52 1019.0
20201029101934 39 236 5.0 5.0 0.00 0.00 0.00 52 1019.0
20201029101533 39 225 5.0 5.0 0.00 0.00 0.00 52 1019.0
20201029101123 40 237 3.0 3.0 0.00 0.00 0.00 51 1019.1
20201029100704 40 246 2.0 2.0 0.00 0.00 0.00 51 1019.1
20201029100253 40 245 3.0 3.0 0.00 0.00 0.00 51 1019.1
20201029095901 40 253 2.0 2.0 0.00 0.00 0.00 51 1019.1
20201029095433 40 253 5.0 5.0 0.00 0.00 0.00 52 1019.1
20201029095031 40 261 2.0 5.0 0.00 0.00 0.00 52 1018.9
20201029094622 40 225 2.0 3.0 0.00 0.00 0.00 52 1018.9
20201029094204 41 220 3.0 3.0 0.00 0.00 0.00 52 1018.9
20201029093753 41 235 3.0 3.0 0.00 0.00 0.00 53 1018.7
20201029093347 41 218 2.0 3.0 0.00 0.00 0.00 53 1018.7
20201029092933 41 225 3.0 5.0 0.00 0.00 0.00 52 1018.7
20201029092529 41 221 3.0 3.0 0.00 0.00 0.00 52 1018.6
20201029092113 41 251 3.0 3.0 0.00 0.00 0.00 52 1018.6
20201029091701 41 257 2.0 2.0 0.00 0.00 0.00 52 1018.6
20201029091250 41 240 2.0 2.0 0.00 0.00 0.00 52 1018.5
20201029090842 41 259 3.0 3.0 0.00 0.00 0.00 52 1018.5
20201029090431 41 263 2.0 3.0 0.00 0.00 0.00 52 1018.5
20201029090029 41 222 2.0 3.0 0.00 0.00 0.00 52 1018.6
20201029085612 41 235 2.0 2.0 0.00 0.00 0.00 52 1018.6
20201029085159 41 229 1.0 1.0 0.00 0.00 0.00 52 1018.6
20201029084751 41 226 1.0 1.0 0.00 0.00 0.00 52 1018.5
20201029084342 41 222 1.0 2.0 0.00 0.00 0.00 51 1018.5
20201029083928 41 225 2.0 1.0 0.00 0.00 0.00 51 1018.5
20201029083521 41 225 2.0 2.0 0.00 0.00 0.00 51 1018.5
20201029083121 42 211 2.0 2.0 0.00 0.00 0.00 51 1018.5
20201029082658 41 181 0.0 2.0 0.00 0.00 0.00 53 1018.4
20201029082251 41 230 0.0 0.0 0.00 0.00 0.00 53 1018.4
20201029081840 41 225 0.0 0.0 0.00 0.00 0.00 53 1018.4
20201029081431 41 225 0.0 0.0 0.00 0.00 0.00 52 1018.4
20201029081018 41 180 0.0 0.0 0.00 0.00 0.00 52 1018.3
20201029080609 41 188 0.0 0.0 0.00 0.00 0.00 52 1018.3
20201029080157 42 208 1.0 1.0 0.00 0.00 0.00 52 1018.2
20201029075747 41 202 1.0 2.0 0.00 0.00 0.00 52 1018.2
20201029075351 41 213 0.0 0.0 0.00 0.00 0.00 51 1018.2
20201029074926 42 168 1.0 1.0 0.00 0.00 0.00 50 1018.0
20201029074521 42 157 1.0 1.0 0.00 0.00 0.00 50 1018.0
20201029074109 43 225 2.0 2.0 0.00 0.00 0.00 50 1018.0
20201029073700 43 216 1.0 2.0 0.00 0.00 0.00 49 1017.7
20201029073246 43 250 3.0 3.0 0.00 0.00 0.00 49 1017.7
20201029072837 43 263 2.0 2.0 0.00 0.00 0.00 48 1017.7
20201029072425 43 239 2.0 3.0 0.00 0.00 0.00 48 1017.5
20201029072025 44 227 3.0 3.0 0.00 0.00 0.00 48 1017.5
20201029071624 44 239 3.0 5.0 0.00 0.00 0.00 48 1017.5
20201029071212 44 225 3.0 5.0 0.00 0.00 0.00 48 1017.4
20201029070744 44 214 2.0 3.0 0.00 0.00 0.00 48 1017.4
20201029070336 44 234 3.0 3.0 0.00 0.00 0.00 48 1017.4
20201029065929 44 202 2.0 3.0 0.00 0.00 0.00 47 1017.2
20201029065516 44 205 2.0 3.0 0.00 0.00 0.00 47 1017.2
20201029065112 44 225 2.0 3.0 0.00 0.00 0.00 47 1017.2
20201029064653 44 225 3.0 3.0 0.00 0.00 0.00 47 1017.2
20201029064245 44 240 3.0 3.0 0.00 0.00 0.00 47 1017.2
20201029063835 44 225 3.0 3.0 0.00 0.00 0.00 48 1017.2
20201029063423 44 225 2.0 2.0 0.00 0.00 0.00 48 1017.2
20201029063030 44 237 3.0 5.0 0.00 0.00 0.00 49 1017.2
20201029062606 44 233 2.0 3.0 0.00 0.00 0.00 49 1017.2
20201029062152 44 234 2.0 3.0 0.00 0.00 0.00 48 1017.2
20201029061747 44 231 2.0 3.0 0.00 0.00 0.00 48 1017.2
20201029061353 44 236 3.0 3.0 0.00 0.00 0.00 48 1017.2
20201029060923 44 225 2.0 3.0 0.00 0.00 0.00 47 1017.2
20201029060512 44 239 3.0 3.0 0.00 0.00 0.00 47 1017.2
20201029060103 44 233 2.0 2.0 0.00 0.00 0.00 47 1017.0
20201029055652 44 225 1.0 1.0 0.00 0.00 0.00 47 1017.0
20201029055241 44 232 0.0 0.0 0.00 0.00 0.00 46 1017.0
20201029054835 45 248 0.0 1.0 0.00 0.00 0.00 46 1017.0
20201029054432 45 205 0.0 0.0 0.00 0.00 0.00 46 1017.0
20201029054023 45 158 0.0 0.0 0.00 0.00 0.00 45 1017.0
20201029053602 46 245 3.0 5.0 0.00 0.00 0.00 45 1016.8
20201029053212 46 237 3.0 3.0 0.00 0.00 0.00 45 1016.8
20201029052740 46 252 3.0 3.0 0.00 0.00 0.00 44 1016.8
20201029052332 46 264 2.0 2.0 0.00 0.00 0.00 44 1016.7
20201029051919 46 225 2.0 2.0 0.00 0.00 0.00 44 1016.7
20201029051525 46 231 2.0 2.0 0.00 0.00 0.00 44 1016.7
20201029051105 46 202 3.0 3.0 0.00 0.00 0.00 44 1016.6
20201029050655 46 239 2.0 3.0 0.00 0.00 0.00 44 1016.6
20201029050240 46 239 2.0 2.0 0.00 0.00 0.00 44 1016.5
20201029045840 46 236 2.0 2.0 0.00 0.00 0.00 44 1016.5
20201029045417 46 225 0.0 2.0 0.00 0.00 0.00 44 1016.5
20201029045008 47 226 1.0 2.0 0.00 0.00 0.00 44 1016.1
20201029044605 49 202 0.0 0.0 0.00 0.00 0.00 42 1015.0
20201029043737 49 202 0.0 0.0 0.00 0.00 0.00 42 1015.0
20201029043333 49 202 0.0 0.0 0.00 0.00 0.00 42 1015.0
20201029042918 49 202 0.0 0.0 0.00 0.00 0.00 42 1015.0
20201029042513 49 202 0.0 0.0 0.00 0.00 0.00 42 1015.0
20201029042058 49 202 0.0 0.0 0.00 0.00 0.00 42 1015.0
20201029041650 49 202 0.0 0.0 0.00 0.00 0.00 42 1015.0
20201029041235 49 202 0.0 0.0 0.00 0.00 0.00 42 1015.0
20201029040826 49 202 0.0 0.0 0.00 0.00 0.00 42 1015.0
20201029040420 49 202 0.0 0.0 0.00 0.00 0.00 42 1015.0
20201029040023 49 202 0.0 0.0 0.00 0.00 0.00 42 1015.0
20201029035558 49 202 0.0 0.0 0.00 0.00 0.00 42 1015.0
20201029035148 49 202 0.0 0.0 0.00 0.00 0.00 42 1015.0
20201029034734 49 202 0.0 0.0 0.00 0.00 0.00 42 1015.0
20201029034324 49 202 0.0 0.0 0.00 0.00 0.00 42 1015.0
20201029033916 49 202 0.0 0.0 0.00 0.00 0.00 42 1015.0
20201029033507 49 202 0.0 0.0 0.00 0.00 0.00 42 1015.0
20201029033058 49 202 0.0 0.0 0.00 0.00 0.00 42 1015.0
20201029032645 49 202 0.0 0.0 0.00 0.00 0.00 42 1015.0
20201029032237 49 202 0.0 0.0 0.00 0.00 0.00 42 1015.0
20201029031822 49 202 0.0 0.0 0.00 0.00 0.00 42 1015.0
20201029031426 49 202 0.0 0.0 0.00 0.00 0.00 42 1015.0
20201029031022 49 202 0.0 0.0 0.00 0.00 0.00 42 1015.0
20201029030557 49 202 0.0 0.0 0.00 0.00 0.00 42 1015.0
20201029030145 49 202 0.0 0.0 0.00 0.00 0.00 42 1015.0
20201029025732 49 202 0.0 0.0 0.00 0.00 0.00 42 1015.0
20201029025335 49 202 0.0 0.0 0.00 0.00 0.00 42 1015.0
20201029024913 49 202 0.0 0.0 0.00 0.00 0.00 42 1015.0
20201029024515 49 202 0.0 0.0 0.00 0.00 0.00 42 1015.0
20201029024052 49 202 0.0 0.0 0.00 0.00 0.00 42 1015.0
20201029023643 49 202 0.0 0.0 0.00 0.00 0.00 42 1015.0
20201029023240 49 202 0.0 0.0 0.00 0.00 0.00 42 1015.0
20201029022820 49 202 0.0 0.0 0.00 0.00 0.00 42 1015.0
20201029022416 49 202 0.0 0.0 0.00 0.00 0.00 41 1014.8
20201029022009 49 225 0.0 0.0 0.00 0.00 0.00 40 1014.8
20201029021549 49 225 0.0 1.0 0.00 0.00 0.00 40 1014.8
20201029021141 49 225 0.0 0.0 0.00 0.00 0.00 40 1014.7
20201029020729 49 225 0.0 0.0 0.00 0.00 0.00 40 1014.7
20201029020323 50 202 0.0 0.0 0.00 0.00 0.00 40 1014.7
20201029015912 50 202 0.0 0.0 0.00 0.00 0.00 39 1014.4
20201029015459 51 202 0.0 0.0 0.00 0.00 0.00 38 1014.4
20201029015049 51 84 1.0 1.0 0.00 0.00 0.00 37 1014.2
20201029014642 51 74 3.0 3.0 0.00 0.00 0.00 37 1014.2
20201029014229 51 98 2.0 2.0 0.00 0.00 0.00 37 1014.2
20201029013818 52 68 3.0 3.0 0.00 0.00 0.00 37 1014.0
20201029013412 52 62 5.0 5.0 0.00 0.00 0.00 37 1013.9
20201029013019 52 74 3.0 6.0 0.00 0.00 0.00 37 1013.9
20201029012553 52 59 6.0 6.0 0.00 0.00 0.00 37 1013.6
20201029012139 52 65 6.0 7.0 0.00 0.00 0.00 37 1013.6
20201029011727 51 37 5.0 6.0 0.00 0.00 0.00 37 1013.6
20201029011322 52 62 3.0 3.0 0.00 0.00 0.00 37 1013.4
20201029010915 52 84 3.0 3.0 0.00 0.00 0.00 37 1013.4
20201029010457 52 92 5.0 5.0 0.00 0.00 0.00 37 1013.4
20201029010107 52 35 3.0 6.0 0.00 0.00 0.00 37 1013.2
20201029005637 52 49 5.0 5.0 0.00 0.00 0.00 37 1013.2
20201029005225 52 74 6.0 7.0 0.00 0.00 0.00 37 1013.2
20201029004816 52 34 5.0 6.0 0.00 0.00 0.00 37 1012.9
20201029004434 52 56 6.0 7.0 0.00 0.00 0.00 37 1012.9
20201029004011 52 47 5.0 6.0 0.00 0.00 0.00 37 1012.9
20201029003544 52 58 5.0 5.0 0.00 0.00 0.00 37 1012.7
20201029003214 52 22 7.0 7.0 0.00 0.00 0.00 36 1012.7
20201029002748 52 55 7.0 8.0 0.00 0.00 0.00 36 1012.7
20201029002317 52 49 6.0 6.0 0.00 0.00 0.00 36 1012.5
20201029001908 53 45 6.0 7.0 0.00 0.00 0.00 36 1012.5
20201029001458 53 62 8.0 8.0 0.00 0.00 0.00 36 1012.4
20201029001113 53 39 12.0 14.0 0.00 0.00 0.00 35 1012.2
20201029000650 53 45 10.0 10.0 0.00 0.00 0.00 35 1012.2
20201029000227 54 39 9.0 12.0 0.00 0.00 0.00 35 1012.2
20201028235813 54 84 10.0 12.0 0.00 0.00 0.00 35 1012.2
20201028235411 54 51 8.0 9.0 0.00 0.00 0.00 34 1012.2
20201028234954 55 88 9.0 10.0 0.00 0.00 0.00 34 1011.9
20201028234600 55 77 10.0 10.0 0.00 0.00 0.00 34 1011.9
20201028234136 55 74 7.0 9.0 0.00 0.00 0.00 33 1011.9
20201028233722 55 54 8.0 8.0 0.00 0.00 0.00 33 1011.9
20201028233313 56 100 7.0 9.0 0.00 0.00 0.00 33 1011.9
20201028232905 55 40 9.0 10.0 0.00 0.00 0.00 33 1011.9
20201028232452 59 68 6.0 6.0 0.00 0.00 0.00 30 1011.6
20201028232045 59 68 6.0 6.0 0.00 0.00 0.00 30 1011.6
20201028231639 59 68 6.0 6.0 0.00 0.00 0.00 30 1011.6
20201028231227 59 68 6.0 6.0 0.00 0.00 0.00 30 1011.6
20201028230815 59 68 6.0 6.0 0.00 0.00 0.00 30 1011.6
20201028230411 59 68 6.0 6.0 0.00 0.00 0.00 30 1011.6
20201028225950 59 68 6.0 6.0 0.00 0.00 0.00 30 1011.4
20201028225539 59 68 6.0 6.0 0.00 0.00 0.00 30 1011.4
20201028225139 59 68 6.0 6.0 0.00 0.00 0.00 30 1011.4
20201028224727 59 68 6.0 6.0 0.00 0.00 0.00 30 1011.4
20201028224318 59 68 6.0 6.0 0.00 0.00 0.00 30 1011.4
20201028223909 59 68 6.0 6.0 0.00 0.00 0.00 30 1011.4
20201028223452 59 68 6.0 6.0 0.00 0.00 0.00 30 1011.3
20201028223059 59 68 6.0 6.0 0.00 0.00 0.00 30 1011.3
20201028222636 59 68 6.0 6.0 0.00 0.00 0.00 30 1011.3
20201028222218 59 50 9.0 12.0 0.00 0.00 0.00 30 1011.2
20201028221817 57 45 7.0 7.0 0.00 0.00 0.00 31 1011.2
20201028221359 57 66 9.0 12.0 0.00 0.00 0.00 30 1011.1
20201028220947 58 63 9.0 10.0 0.00 0.00 0.00 29 1011.1
20201028220539 60 68 8.0 9.0 0.00 0.00 0.00 28 1011.1